Time;durP1;ratioP1;P1;durP2;ratioP2;P2;SDS_P1;SDS_P2;PMS_P1;PMS_P2;Temp;Humidity;BMP_temperature;BMP_pressure;BME280_temperature;BME280_humidity;BME280_pressure;Samples;Min_cycle;Max_cycle;Signal;HPM_P1;HPM_P2
2022/03/07 00:01:04;;;;;;;23.25;15.38;;;;;;;;;;6220456;23;20392;-87
2022/03/07 00:03:30;;;;;;;22.98;15.38;;;;;;;;;;6222060;22;20166;-88
2022/03/07 00:05:56;;;;;;;22.85;15.00;;;;;;;;;;6222070;23;20390;-89
2022/03/07 00:08:22;;;;;;;23.70;15.63;;;;;;;;;;6221650;23;20032;-89
2022/03/07 00:11:07;;;;;;;22.92;15.50;;;;;;;;;;6221900;23;20266;-89
2022/03/07 00:13:33;;;;;;;21.40;15.57;;;;;;;;;;6221533;23;20087;-90
2022/03/07 00:15:59;;;;;;;27.80;17.80;;;;;;;;;;6220501;23;20027;-89
2022/03/07 00:18:25;;;;;;;26.73;17.98;;;;;;;;;;6219900;23;20104;-88
2022/03/07 00:20:51;;;;;;;27.85;17.45;;;;;;;;;;6221840;23;20001;-88
2022/03/07 00:23:17;;;;;;;29.10;17.77;;;;;;;;;;6220508;23;20767;-89
2022/03/07 00:25:43;;;;;;;26.02;17.17;;;;;;;;;;6221644;23;20365;-90
2022/03/07 00:28:09;;;;;;;26.58;16.60;;;;;;;;;;6221516;23;20001;-89
2022/03/07 00:30:35;;;;;;;26.48;17.33;;;;;;;;;;6221740;23;20004;-89
2022/03/07 00:33:01;;;;;;;26.20;17.25;;;;;;;;;;6221229;23;20008;-89
2022/03/07 00:35:27;;;;;;;26.48;16.77;;;;;;;;;;6220252;23;20008;-88
2022/03/07 00:37:53;;;;;;;30.55;18.48;;;;;;;;;;6221388;23;20007;-89
2022/03/07 00:40:56;;;;;;;30.27;19.52;;;;;;;;;;6220159;23;20323;-88
2022/03/07 00:43:22;;;;;;;;;;;;;;;;;;6220660;23;20055;-88
2022/03/07 00:45:49;;;;;;;27.92;18.13;;;;;;;;;;6221607;23;19900;-88
2022/03/07 00:48:15;;;;;;;26.92;17.55;;;;;;;;;;6221299;23;20334;-88
2022/03/07 00:50:42;;;;;;;26.48;16.67;;;;;;;;;;6220893;23;20271;-88
2022/03/07 00:53:11;;;;;;;26.92;17.33;;;;;;;;;;6221171;23;20005;-89
2022/03/07 00:55:38;;;;;;;26.45;17.33;;;;;;;;;;6221133;23;20007;-87
2022/03/07 00:58:04;;;;;;;22.75;16.35;;;;;;;;;;6221379;23;19997;-88
2022/03/07 01:00:31;;;;;;;22.60;16.10;;;;;;;;;;6219238;23;20271;-88
2022/03/07 01:02:57;;;;;;;23.48;16.02;;;;;;;;;;6221627;23;20099;-87
2022/03/07 01:05:23;;;;;;;24.17;16.08;;;;;;;;;;6219640;23;20015;-87
2022/03/07 01:07:49;;;;;;;24.33;16.25;;;;;;;;;;6219989;23;20000;-87
2022/03/07 01:13:19;;;;;;;24.83;16.52;;;;;;;;;;6220926;23;20111;-87
2022/03/07 01:15:46;;;;;;;22.55;14.85;;;;;;;;;;6221288;23;20006;-87
2022/03/07 01:18:12;;;;;;;29.90;19.73;;;;;;;;;;6220895;23;19993;-88
2022/03/07 01:20:38;;;;;;;30.08;19.50;;;;;;;;;;6221035;23;20104;-87
2022/03/07 01:23:04;;;;;;;25.25;17.05;;;;;;;;;;6221100;23;20240;-88
2022/03/07 01:25:31;;;;;;;24.35;16.08;;;;;;;;;;6221389;23;20005;-87
2022/03/07 01:27:57;;;;;;;21.40;15.38;;;;;;;;;;6219860;23;20013;-87
2022/03/07 01:30:23;;;;;;;22.65;15.80;;;;;;;;;;6221162;23;20039;-88
2022/03/07 01:32:52;;;;;;;19.10;14.15;;;;;;;;;;6220698;23;20107;-88
2022/03/07 01:35:18;;;;;;;20.25;14.63;;;;;;;;;;6220918;23;20017;-89
2022/03/07 01:37:44;;;;;;;23.30;16.65;;;;;;;;;;6221476;23;20012;-89
2022/03/07 01:40:47;;;;;;;20.77;15.90;;;;;;;;;;6221881;23;20008;-89
2022/03/07 01:43:13;;;;;;;23.05;15.95;;;;;;;;;;6222767;23;20012;-89
2022/03/07 01:45:41;;;;;;;22.90;15.23;;;;;;;;;;6223346;23;20008;-89
2022/03/07 01:48:07;;;;;;;22.00;15.57;;;;;;;;;;6221628;23;20005;-89
2022/03/07 01:50:33;;;;;;;21.25;14.43;;;;;;;;;;6221476;23;20013;-88
2022/03/07 01:53:00;;;;;;;19.55;13.90;;;;;;;;;;6222830;23;20008;-89
2022/03/07 01:55:26;;;;;;;20.23;13.80;;;;;;;;;;6221621;23;20426;-90
2022/03/07 01:57:52;;;;;;;21.85;14.82;;;;;;;;;;6221680;23;20389;-89
2022/03/07 02:00:20;;;;;;;22.45;14.65;;;;;;;;;;6223332;23;20035;-88
2022/03/07 02:02:46;;;;;;;19.65;13.98;;;;;;;;;;6223028;23;20000;-88
2022/03/07 02:05:13;;;;;;;19.17;13.63;;;;;;;;;;6222936;23;20007;-89
2022/03/07 02:07:39;;;;;;;20.08;14.60;;;;;;;;;;6222906;23;20012;-89
2022/03/07 02:10:28;;;;;;;19.63;13.85;;;;;;;;;;6223183;23;20370;-92
2022/03/07 02:12:54;;;;;;;21.58;14.63;;;;;;;;;;6222760;23;20009;-88
2022/03/07 02:15:20;;;;;;;18.98;13.18;;;;;;;;;;6221636;23;20092;-90
2022/03/07 02:17:47;;;;;;;20.63;14.30;;;;;;;;;;6221515;23;20000;-90
2022/03/07 02:20:13;;;;;;;20.08;13.88;;;;;;;;;;6222650;23;20004;-90
2022/03/07 02:22:40;;;;;;;18.70;13.27;;;;;;;;;;6222459;23;20035;-90
2022/03/07 02:25:06;;;;;;;19.77;13.45;;;;;;;;;;6222999;23;20005;-89
2022/03/07 02:27:33;;;;;;;19.60;13.23;;;;;;;;;;6223048;23;20075;-91
2022/03/07 02:30:05;;;;;;;19.52;13.27;;;;;;;;;;6222789;23;20007;-90
2022/03/07 02:32:31;;;;;;;19.70;13.32;;;;;;;;;;6220885;23;20371;-89
2022/03/07 02:34:57;;;;;;;17.90;12.98;;;;;;;;;;6222324;23;20037;-89
2022/03/07 02:37:24;;;;;;;19.90;13.18;;;;;;;;;;6222884;23;20012;-90
2022/03/07 02:39:50;;;;;;;25.17;15.63;;;;;;;;;;6222678;23;20008;-91
2022/03/07 02:42:16;;;;;;;27.02;14.95;;;;;;;;;;6222501;23;20024;-90
2022/03/07 02:44:42;;;;;;;26.90;15.32;;;;;;;;;;6222871;23;20004;-90
2022/03/07 02:47:13;;;;;;;28.55;15.48;;;;;;;;;;6220478;23;20009;-90
2022/03/07 02:49:39;;;;;;;34.95;18.00;;;;;;;;;;6222498;23;20004;-90
2022/03/07 02:52:07;;;;;;;26.20;16.15;;;;;;;;;;6220804;23;20335;-90
2022/03/07 02:54:43;;;;;;;25.20;16.05;;;;;;;;;;6222686;23;19996;-90
2022/03/07 02:57:09;;;;;;;25.50;16.13;;;;;;;;;;6221166;23;20012;-90
2022/03/07 02:59:36;;;;;;;27.98;16.50;;;;;;;;;;6222629;23;20001;-90
2022/03/07 03:02:03;;;;;;;23.30;14.38;;;;;;;;;;6222213;23;20047;-91
2022/03/07 03:04:29;;;;;;;21.02;13.85;;;;;;;;;;6222700;23;20009;-91
2022/03/07 03:06:55;;;;;;;17.45;12.93;;;;;;;;;;6222704;23;20013;-90
2022/03/07 03:09:21;;;;;;;18.50;13.35;;;;;;;;;;6221071;23;20055;-91
2022/03/07 03:11:47;;;;;;;20.08;13.52;;;;;;;;;;6222039;23;20005;-90
2022/03/07 03:14:14;;;;;;;20.08;13.43;;;;;;;;;;6222131;23;20001;-93
2022/03/07 03:16:40;;;;;;;19.45;13.10;;;;;;;;;;6222022;23;20016;-93
2022/03/07 03:19:06;;;;;;;19.50;13.15;;;;;;;;;;6220290;23;20007;-90
2022/03/07 03:21:32;;;;;;;20.48;14.60;;;;;;;;;;6222400;23;20028;-90
2022/03/07 03:23:58;;;;;;;18.58;13.13;;;;;;;;;;6220990;23;20003;-91
2022/03/07 03:26:24;;;;;;;21.15;13.98;;;;;;;;;;6222235;23;20084;-91
2022/03/07 03:28:50;;;;;;;21.33;14.23;;;;;;;;;;6222421;23;20005;-90
2022/03/07 03:31:16;;;;;;;28.83;16.13;;;;;;;;;;6222037;23;20051;-89
2022/03/07 03:33:42;;;;;;;23.88;16.58;;;;;;;;;;6221955;23;20005;-89
2022/03/07 03:36:09;;;;;;;27.30;17.38;;;;;;;;;;6221981;23;20088;-89
2022/03/07 03:38:35;;;;;;;24.05;16.33;;;;;;;;;;6220576;23;20004;-89
2022/03/07 03:41:01;;;;;;;27.85;18.55;;;;;;;;;;6222289;23;20066;-89
2022/03/07 03:43:27;;;;;;;30.15;18.83;;;;;;;;;;6222085;23;20066;-90
2022/03/07 03:45:53;;;;;;;30.42;19.02;;;;;;;;;;6222103;23;20000;-91
2022/03/07 03:48:19;;;;;;;31.48;19.63;;;;;;;;;;6222100;23;20012;-90
2022/03/07 03:50:45;;;;;;;29.42;19.27;;;;;;;;;;6220785;23;20382;-89
2022/03/07 03:53:11;;;;;;;31.27;19.27;;;;;;;;;;6220607;23;20012;-90
2022/03/07 03:55:37;;;;;;;29.30;19.23;;;;;;;;;;6222032;23;20003;-91
2022/03/07 03:58:04;;;;;;;27.48;18.98;;;;;;;;;;6219993;23;20036;-91
2022/03/07 04:00:30;;;;;;;26.95;17.63;;;;;;;;;;6220030;23;20091;-91
2022/03/07 04:02:56;;;;;;;26.63;18.73;;;;;;;;;;6221359;23;20024;-92
2022/03/07 04:05:22;;;;;;;27.67;19.17;;;;;;;;;;6221540;23;20027;-91
2022/03/07 04:07:48;;;;;;;25.80;18.15;;;;;;;;;;6222167;23;20008;-92
2022/03/07 04:10:14;;;;;;;27.83;17.63;;;;;;;;;;6222100;23;20000;-90
2022/03/07 04:12:41;;;;;;;27.13;18.63;;;;;;;;;;6221787;23;20279;-90
2022/03/07 04:15:07;;;;;;;25.42;17.67;;;;;;;;;;6219601;23;20005;-90
2022/03/07 04:17:37;;;;;;;25.92;17.42;;;;;;;;;;6221800;23;20001;-90
2022/03/07 04:20:03;;;;;;;26.02;18.23;;;;;;;;;;6220764;23;20123;-91
2022/03/07 04:22:29;;;;;;;28.98;18.95;;;;;;;;;;6221319;23;20051;-87
2022/03/07 04:24:55;;;;;;;32.95;20.60;;;;;;;;;;6221560;23;20004;-88
2022/03/07 04:27:21;;;;;;;33.35;20.83;;;;;;;;;;6221754;23;20004;-86
2022/03/07 04:29:48;;;;;;;35.78;21.77;;;;;;;;;;6221516;23;20050;-89
2022/03/07 04:32:14;;;;;;;34.20;22.15;;;;;;;;;;6221292;23;20355;-88
2022/03/07 04:34:40;;;;;;;36.17;22.20;;;;;;;;;;6220991;23;20017;-89
2022/03/07 04:37:07;;;;;;;33.05;21.80;;;;;;;;;;6221298;23;20076;-88
2022/03/07 04:39:33;;;;;;;35.00;21.88;;;;;;;;;;6221816;23;20020;-89
2022/03/07 04:41:59;;;;;;;31.25;21.25;;;;;;;;;;6221215;23;20364;-87
2022/03/07 04:44:25;;;;;;;30.85;20.35;;;;;;;;;;6219963;23;20016;-87
2022/03/07 04:46:51;;;;;;;28.05;19.88;;;;;;;;;;6221536;23;20004;-88
2022/03/07 04:49:17;;;;;;;29.67;19.48;;;;;;;;;;6219806;23;20011;-89
2022/03/07 04:51:45;;;;;;;32.38;21.48;;;;;;;;;;6221228;23;20355;-88
2022/03/07 04:54:12;;;;;;;33.35;21.75;;;;;;;;;;6221135;23;20004;-90
2022/03/07 04:56:38;;;;;;;31.63;22.63;;;;;;;;;;6220094;23;20083;-89
2022/03/07 04:59:05;;;;;;;30.48;21.23;;;;;;;;;;6221107;23;20008;-90
2022/03/07 05:01:31;;;;;;;30.60;21.15;;;;;;;;;;6219532;23;20087;-89
2022/03/07 05:03:57;;;;;;;28.90;19.02;;;;;;;;;;6221621;23;20013;-89
2022/03/07 05:06:23;;;;;;;31.98;20.88;;;;;;;;;;6221204;23;19997;-88
2022/03/07 05:08:49;;;;;;;38.17;23.63;;;;;;;;;;6221463;23;19997;-88
2022/03/07 05:11:15;;;;;;;42.30;25.25;;;;;;;;;;6220067;23;20000;-88
2022/03/07 05:13:41;;;;;;;36.70;23.60;;;;;;;;;;6221008;23;20001;-88
2022/03/07 05:16:07;;;;;;;39.67;24.83;;;;;;;;;;6220290;23;20356;-88
2022/03/07 05:18:34;;;;;;;37.22;24.25;;;;;;;;;;6220898;23;20432;-87
2022/03/07 05:21:00;;;;;;;42.03;25.55;;;;;;;;;;6221052;23;20402;-87
2022/03/07 05:23:26;;;;;;;36.28;23.33;;;;;;;;;;6220959;23;20376;-88
2022/03/07 05:25:52;;;;;;;41.20;24.05;;;;;;;;;;6221309;23;20013;-88
2022/03/07 05:28:18;;;;;;;41.67;26.10;;;;;;;;;;6219948;23;20015;-89
2022/03/07 05:30:44;;;;;;;37.58;24.08;;;;;;;;;;6220564;23;20008;-90
2022/03/07 05:33:10;;;;;;;41.17;26.08;;;;;;;;;;6221194;23;20020;-91
2022/03/07 05:35:36;;;;;;;50.40;29.38;;;;;;;;;;6220535;23;20005;-89
2022/03/07 05:38:04;;;;;;;45.63;28.48;;;;;;;;;;6220634;23;20016;-88
2022/03/07 05:40:30;;;;;;;54.30;30.17;;;;;;;;;;6221156;23;20084;-87
2022/03/07 05:42:56;;;;;;;56.95;31.38;;;;;;;;;;6221309;23;20055;-89
2022/03/07 05:45:22;;;;;;;51.63;29.85;;;;;;;;;;6220942;23;20012;-88
2022/03/07 05:47:48;;;;;;;41.13;24.08;;;;;;;;;;6221195;23;20001;-89
2022/03/07 05:50:14;;;;;;;45.38;28.05;;;;;;;;;;6220827;23;20051;-88
2022/03/07 05:52:41;;;;;;;38.67;24.58;;;;;;;;;;6220950;23;20363;-90
2022/03/07 05:55:07;;;;;;;44.92;29.42;;;;;;;;;;6220600;23;20001;-89
2022/03/07 05:57:34;;;;;;;46.63;28.85;;;;;;;;;;6220728;23;20028;-90
2022/03/07 06:00:00;;;;;;;54.40;31.70;;;;;;;;;;6220714;23;20005;-90
2022/03/07 06:02:26;;;;;;;54.30;32.53;;;;;;;;;;6221157;23;20008;-90
2022/03/07 06:04:52;;;;;;;55.90;32.40;;;;;;;;;;6221459;23;20004;-90
2022/03/07 06:07:18;;;;;;;52.45;31.58;;;;;;;;;;6220830;23;20008;-90
2022/03/07 06:09:44;;;;;;;55.58;31.58;;;;;;;;;;6221066;23;20001;-92
2022/03/07 06:12:10;;;;;;;49.47;30.10;;;;;;;;;;6220534;23;20028;-88
2022/03/07 06:14:36;;;;;;;53.13;31.13;;;;;;;;;;6219215;23;20005;-88
2022/03/07 06:17:02;;;;;;;61.33;33.88;;;;;;;;;;6219543;23;20001;-89
2022/03/07 06:19:29;;;;;;;80.20;39.03;;;;;;;;;;6221099;23;20005;-89
2022/03/07 06:21:55;;;;;;;70.65;34.22;;;;;;;;;;6220909;23;20076;-88
2022/03/07 06:24:21;;;;;;;61.40;30.73;;;;;;;;;;6221039;23;20046;-90
2022/03/07 06:26:47;;;;;;;84.75;35.42;;;;;;;;;;6222381;23;20092;-89
2022/03/07 06:29:13;;;;;;;96.63;38.45;;;;;;;;;;6222318;23;20004;-88
2022/03/07 06:31:39;;;;;;;103.88;40.85;;;;;;;;;;6222068;23;20353;-90
2022/03/07 06:34:05;;;;;;;95.03;38.55;;;;;;;;;;6222343;23;20028;-89
2022/03/07 06:36:31;;;;;;;53.22;28.75;;;;;;;;;;6222758;23;20009;-89
2022/03/07 06:38:57;;;;;;;48.25;30.30;;;;;;;;;;6222561;23;20001;-92
2022/03/07 06:41:23;;;;;;;48.70;26.80;;;;;;;;;;6222702;23;20237;-90
2022/03/07 06:43:49;;;;;;;138.00;41.75;;;;;;;;;;6222321;23;20000;-89
2022/03/07 06:46:15;;;;;;;105.85;39.17;;;;;;;;;;6220673;23;20008;-88
2022/03/07 06:48:41;;;;;;;57.83;26.55;;;;;;;;;;6222241;23;20005;-89
2022/03/07 06:51:07;;;;;;;46.85;25.65;;;;;;;;;;6222450;23;20000;-89
2022/03/07 06:53:35;;;;;;;39.70;24.33;;;;;;;;;;6222436;23;20005;-90
2022/03/07 06:56:01;;;;;;;41.13;25.83;;;;;;;;;;6222601;23;20005;-89
2022/03/07 06:58:27;;;;;;;60.25;26.95;;;;;;;;;;6222526;23;20059;-90
2022/03/07 07:00:53;;;;;;;84.88;36.55;;;;;;;;;;6221974;23;20327;-90
2022/03/07 07:03:19;;;;;;;60.25;28.45;;;;;;;;;;6220938;23;20012;-93
2022/03/07 07:05:45;;;;;;;52.97;27.67;;;;;;;;;;6222865;23;20270;-89
2022/03/07 07:08:11;;;;;;;41.65;24.63;;;;;;;;;;6222454;23;20240;-88
2022/03/07 07:10:38;;;;;;;43.85;26.35;;;;;;;;;;6222114;23;20031;-88
2022/03/07 07:13:04;;;;;;;37.25;23.58;;;;;;;;;;6222256;23;20051;-88
2022/03/07 07:15:30;;;;;;;40.60;24.83;;;;;;;;;;6222639;23;20035;-89
2022/03/07 07:17:56;;;;;;;34.55;22.63;;;;;;;;;;6221094;23;20000;-90
2022/03/07 07:20:22;;;;;;;37.25;23.17;;;;;;;;;;6222420;23;20007;-88
2022/03/07 07:22:48;;;;;;;37.78;23.58;;;;;;;;;;6221886;23;20009;-88
2022/03/07 07:25:14;;;;;;;38.28;23.33;;;;;;;;;;6222310;23;20005;-88
2022/03/07 07:27:40;;;;;;;42.95;25.15;;;;;;;;;;6221883;23;20047;-88
2022/03/07 07:30:08;;;;;;;44.67;26.92;;;;;;;;;;6220284;23;20015;-90
2022/03/07 07:32:35;;;;;;;44.25;24.83;;;;;;;;;;6222318;23;20079;-88
2022/03/07 07:35:01;;;;;;;36.08;23.42;;;;;;;;;;6221833;23;20009;-88
2022/03/07 07:37:27;;;;;;;38.75;24.02;;;;;;;;;;6222307;23;20004;-88
2022/03/07 07:39:53;;;;;;;37.47;23.10;;;;;;;;;;6221526;23;20003;-91
2022/03/07 07:42:19;;;;;;;33.33;22.05;;;;;;;;;;6221878;23;20028;-90
2022/03/07 07:44:45;;;;;;;38.10;22.60;;;;;;;;;;6221800;23;20005;-89
2022/03/07 07:47:11;;;;;;;32.75;21.52;;;;;;;;;;6222160;23;20001;-89
2022/03/07 07:49:38;;;;;;;32.97;21.58;;;;;;;;;;6221999;23;20008;-87
2022/03/07 07:52:04;;;;;;;34.03;21.65;;;;;;;;;;6222045;23;20175;-87
2022/03/07 07:54:31;;;;;;;35.85;21.63;;;;;;;;;;6222116;23;20035;-87
2022/03/07 07:56:57;;;;;;;33.30;22.25;;;;;;;;;;6222024;23;20104;-88
2022/03/07 07:59:23;;;;;;;34.10;21.15;;;;;;;;;;6221609;23;20007;-88
2022/03/07 08:01:49;;;;;;;32.78;20.67;;;;;;;;;;6220863;23;20063;-90
2022/03/07 08:04:15;;;;;;;38.92;22.98;;;;;;;;;;6221401;23;20011;-90
2022/03/07 08:06:41;;;;;;;44.45;24.17;;;;;;;;;;6221902;23;20012;-89
2022/03/07 08:09:08;;;;;;;33.85;19.63;;;;;;;;;;6220071;23;20359;-90
2022/03/07 08:11:34;;;;;;;63.83;28.67;;;;;;;;;;6221858;23;19997;-89
2022/03/07 08:14:00;;;;;;;43.65;22.83;;;;;;;;;;6221532;23;20056;-90
2022/03/07 08:16:26;;;;;;;35.45;20.20;;;;;;;;;;6221619;23;20004;-90
2022/03/07 08:18:52;;;;;;;31.77;19.60;;;;;;;;;;6221886;23;20030;-90
2022/03/07 08:21:21;;;;;;;32.47;20.67;;;;;;;;;;6221466;23;20004;-90
2022/03/07 08:23:48;;;;;;;29.42;18.75;;;;;;;;;;6221863;23;20050;-92
2022/03/07 08:29:23;;;;;;;29.20;19.38;;;;;;;;;;6221409;23;19999;-90
2022/03/07 08:31:49;;;;;;;42.95;24.95;;;;;;;;;;6220028;23;20062;-90
2022/03/07 08:34:16;;;;;;;39.47;21.67;;;;;;;;;;6221486;23;20099;-86
2022/03/07 08:36:42;;;;;;;33.70;21.58;;;;;;;;;;6221547;23;20017;-90
2022/03/07 08:39:08;;;;;;;38.20;22.05;;;;;;;;;;6221793;23;19996;-88
2022/03/07 08:41:34;;;;;;;39.33;22.98;;;;;;;;;;6220907;23;20092;-89
2022/03/07 08:44:00;;;;;;;38.85;22.67;;;;;;;;;;6221633;23;20072;-90
2022/03/07 08:46:27;;;;;;;34.63;21.08;;;;;;;;;;6221206;23;20078;-89
2022/03/07 08:48:53;;;;;;;32.20;20.10;;;;;;;;;;6219864;23;20015;-89
2022/03/07 08:51:19;;;;;;;30.95;20.80;;;;;;;;;;6221196;23;20020;-89
2022/03/07 08:53:45;;;;;;;32.90;21.48;;;;;;;;;;6221776;23;20001;-89
2022/03/07 08:56:12;;;;;;;39.58;23.38;;;;;;;;;;6221212;23;19997;-90
2022/03/07 08:58:38;;;;;;;68.82;32.47;;;;;;;;;;6221525;23;20016;-89
2022/03/07 09:01:04;;;;;;;62.15;31.55;;;;;;;;;;6220921;23;20005;-89
2022/03/07 09:03:30;;;;;;;55.45;28.95;;;;;;;;;;6220902;23;20012;-89
2022/03/07 09:05:56;;;;;;;46.40;25.33;;;;;;;;;;6221348;23;20059;-89
2022/03/07 09:08:22;;;;;;;38.15;23.58;;;;;;;;;;6221018;23;20454;-90
2022/03/07 09:10:48;;;;;;;45.22;26.73;;;;;;;;;;6220936;23;20260;-91
2022/03/07 09:13:14;;;;;;;50.58;28.00;;;;;;;;;;6221445;23;20076;-91
2022/03/07 09:15:42;;;;;;;56.67;29.58;;;;;;;;;;6221399;23;20005;-90
2022/03/07 09:18:09;;;;;;;43.15;26.30;;;;;;;;;;6221069;23;20355;-91
2022/03/07 09:20:35;;;;;;;43.38;25.40;;;;;;;;;;6219361;23;20004;-91
2022/03/07 09:23:01;;;;;;;44.55;25.83;;;;;;;;;;6221360;23;20016;-90
2022/03/07 09:25:27;;;;;;;40.83;25.05;;;;;;;;;;6221289;23;20004;-90
2022/03/07 09:27:53;;;;;;;39.45;25.58;;;;;;;;;;6219486;23;20008;-91
2022/03/07 09:30:19;;;;;;;48.65;27.27;;;;;;;;;;6221167;23;20001;-90
2022/03/07 09:32:45;;;;;;;46.67;27.15;;;;;;;;;;6220782;23;20011;-90
2022/03/07 09:35:11;;;;;;;45.05;26.02;;;;;;;;;;6220974;23;20019;-90
2022/03/07 09:37:38;;;;;;;48.33;27.10;;;;;;;;;;6219775;23;20004;-91
2022/03/07 09:40:13;;;;;;;39.72;26.35;;;;;;;;;;6221347;23;20000;-90
2022/03/07 09:42:39;;;;;;;42.17;25.30;;;;;;;;;;6220977;23;20023;-90
2022/03/07 09:45:06;;;;;;;37.15;23.88;;;;;;;;;;6221427;23;20024;-90
2022/03/07 09:47:33;;;;;;;43.40;26.05;;;;;;;;;;6220834;23;20007;-90
2022/03/07 09:49:59;;;;;;;41.78;25.10;;;;;;;;;;6219109;23;20051;-89
2022/03/07 09:52:25;;;;;;;41.50;24.67;;;;;;;;;;6221012;23;20012;-91
2022/03/07 09:54:51;;;;;;;43.58;26.58;;;;;;;;;;6220976;23;20004;-90
2022/03/07 09:57:17;;;;;;;41.15;25.10;;;;;;;;;;6219196;23;20298;-90
2022/03/07 09:59:44;;;;;;;39.28;25.08;;;;;;;;;;6221857;23;20042;-90
2022/03/07 10:02:14;;;;;;;39.70;24.70;;;;;;;;;;6223308;23;20066;-90
2022/03/07 10:04:41;;;;;;;40.05;24.73;;;;;;;;;;6221833;23;20012;-89
2022/03/07 10:07:07;;;;;;;36.60;23.55;;;;;;;;;;6221574;23;20008;-89
2022/03/07 10:09:33;;;;;;;39.35;23.45;;;;;;;;;;6222786;23;20005;-89
2022/03/07 10:12:03;;;;;;;37.75;23.48;;;;;;;;;;6222680;23;20364;-91
2022/03/07 10:14:53;;;;;;;40.42;23.63;;;;;;;;;;6222929;23;20000;-90
2022/03/07 10:17:24;;;;;;;38.45;23.45;;;;;;;;;;6221738;23;20111;-90
2022/03/07 10:19:51;;;;;;;47.27;28.17;;;;;;;;;;6223118;23;20303;-91
2022/03/07 10:22:19;;;;;;;43.72;26.35;;;;;;;;;;6222967;23;20246;-90
2022/03/07 10:24:45;;;;;;;40.45;25.70;;;;;;;;;;6222946;23;20005;-90
2022/03/07 10:27:13;;;;;;;39.25;25.98;;;;;;;;;;6222526;23;20068;-89
2022/03/07 10:29:48;;;;;;;38.47;24.40;;;;;;;;;;6220961;23;20307;-93
2022/03/07 10:32:17;;;;;;;44.85;26.13;;;;;;;;;;6222152;23;20031;-90
2022/03/07 10:34:44;;;;;;;48.50;26.85;;;;;;;;;;6220696;23;20107;-90
2022/03/07 10:37:11;;;;;;;47.47;26.70;;;;;;;;;;6223021;23;20215;-89
2022/03/07 10:39:38;;;;;;;40.45;25.73;;;;;;;;;;6222795;23;19997;-90
2022/03/07 10:42:04;;;;;;;45.30;26.45;;;;;;;;;;6222773;23;20359;-90
2022/03/07 10:44:31;;;;;;;39.58;24.88;;;;;;;;;;6220718;23;20016;-90
2022/03/07 10:47:08;;;;;;;40.63;25.42;;;;;;;;;;6221314;23;20008;-90
2022/03/07 10:49:34;;;;;;;42.75;25.48;;;;;;;;;;6222338;23;20371;-90
2022/03/07 10:52:02;;;;;;;38.78;24.92;;;;;;;;;;6222652;23;20017;-90
2022/03/07 10:54:28;;;;;;;38.83;24.50;;;;;;;;;;6222414;23;19997;-89
2022/03/07 10:56:55;;;;;;;43.33;26.10;;;;;;;;;;6222381;23;20000;-89
2022/03/07 10:59:31;;;;;;;41.45;25.77;;;;;;;;;;6196150;23;20009;-89
2022/03/07 11:02:01;;;;;;;41.00;26.35;;;;;;;;;;6222521;23;20076;-89
2022/03/07 11:04:27;;;;;;;39.75;25.73;;;;;;;;;;6222697;23;20004;-90
2022/03/07 11:06:54;;;;;;;38.38;25.45;;;;;;;;;;6222521;23;20005;-89
2022/03/07 11:09:20;;;;;;;38.97;24.63;;;;;;;;;;6222088;23;20003;-90
2022/03/07 11:11:46;;;;;;;38.80;25.13;;;;;;;;;;6221798;23;20027;-89
2022/03/07 11:14:14;;;;;;;40.75;25.20;;;;;;;;;;6222599;23;20072;-91
2022/03/07 11:16:40;;;;;;;39.88;24.45;;;;;;;;;;6222261;23;19997;-90
2022/03/07 11:19:07;;;;;;;38.00;24.92;;;;;;;;;;6222477;23;20001;-89
2022/03/07 11:21:34;;;;;;;40.58;24.13;;;;;;;;;;6222315;23;20019;-89
2022/03/07 11:24:00;;;;;;;40.15;24.52;;;;;;;;;;6222210;23;20025;-89
2022/03/07 11:26:26;;;;;;;54.38;29.10;;;;;;;;;;6220468;23;20005;-90
2022/03/07 11:28:55;;;;;;;264.55;74.82;;;;;;;;;;6222384;23;20059;-90
2022/03/07 11:31:26;;;;;;;67.53;29.23;;;;;;;;;;6221509;23;20062;-89
2022/03/07 11:33:53;;;;;;;73.57;31.77;;;;;;;;;;6221894;23;20356;-90
2022/03/07 11:36:21;;;;;;;97.03;41.22;;;;;;;;;;6221003;23;20005;-90
2022/03/07 11:38:50;;;;;;;35.90;22.50;;;;;;;;;;6222382;23;20001;-89
2022/03/07 11:41:23;;;;;;;34.88;21.95;;;;;;;;;;6221838;23;20004;-89
2022/03/07 11:43:51;;;;;;;34.75;22.58;;;;;;;;;;6220826;23;20263;-89
2022/03/07 11:46:29;;;;;;;32.67;21.42;;;;;;;;;;6222015;23;20355;-88
2022/03/07 11:48:55;;;;;;;36.25;21.40;;;;;;;;;;6220638;23;20008;-89
2022/03/07 11:51:22;;;;;;;35.67;21.92;;;;;;;;;;6222153;23;20008;-88
2022/03/07 11:53:49;;;;;;;32.58;20.92;;;;;;;;;;6221879;23;20008;-88
2022/03/07 11:56:22;;;;;;;35.25;21.65;;;;;;;;;;6222114;23;20111;-89
2022/03/07 11:58:50;;;;;;;39.53;20.92;;;;;;;;;;6221931;23;20359;-89
2022/03/07 12:01:16;;;;;;;33.25;21.63;;;;;;;;;;6221605;23;20072;-89
2022/03/07 12:03:43;;;;;;;33.20;20.52;;;;;;;;;;6221867;23;20008;-87
2022/03/07 12:06:10;;;;;;;30.52;19.63;;;;;;;;;;6220399;23;20012;-88
2022/03/07 12:08:44;;;;;;;33.47;19.90;;;;;;;;;;6221724;23;20367;-89
2022/03/07 12:11:10;;;;;;;42.45;21.58;;;;;;;;;;6221987;23;20005;-88
2022/03/07 12:13:47;;;;;;;30.75;19.25;;;;;;;;;;6220058;23;20367;-89
2022/03/07 12:16:23;;;;;;;27.30;18.50;;;;;;;;;;6221881;23;20006;-89
2022/03/07 12:18:49;;;;;;;29.85;18.33;;;;;;;;;;6221517;23;19996;-88
2022/03/07 12:21:15;;;;;;;28.23;18.08;;;;;;;;;;6220293;23;20347;-90
2022/03/07 12:23:41;;;;;;;33.53;18.65;;;;;;;;;;6221259;23;20294;-89
2022/03/07 12:26:09;;;;;;;29.55;17.90;;;;;;;;;;6220274;23;20032;-89
2022/03/07 12:28:37;;;;;;;27.20;17.35;;;;;;;;;;6221359;23;20008;-89
2022/03/07 12:31:04;;;;;;;27.85;17.40;;;;;;;;;;6221619;23;20004;-89
2022/03/07 12:33:30;;;;;;;30.67;19.00;;;;;;;;;;6221567;23;20174;-88
2022/03/07 12:36:04;;;;;;;29.05;18.02;;;;;;;;;;6221003;23;20047;-89
2022/03/07 12:38:30;;;;;;;23.92;15.73;;;;;;;;;;6221255;23;20004;-89
2022/03/07 12:40:58;;;;;;;26.52;16.25;;;;;;;;;;6219676;23;20043;-89
2022/03/07 12:43:24;;;;;;;27.83;16.25;;;;;;;;;;6221297;23;20020;-89
2022/03/07 12:45:50;;;;;;;32.08;17.67;;;;;;;;;;6219416;23;20005;-89
2022/03/07 12:48:16;;;;;;;38.75;19.35;;;;;;;;;;6221651;23;20286;-88
2022/03/07 12:50:42;;;;;;;34.10;18.75;;;;;;;;;;6219546;23;20059;-89
2022/03/07 12:53:12;;;;;;;33.10;20.95;;;;;;;;;;6221575;23;20031;-88
2022/03/07 12:55:39;;;;;;;27.83;17.88;;;;;;;;;;6221047;23;20043;-89
2022/03/07 12:58:05;;;;;;;37.20;22.52;;;;;;;;;;6221535;23;20119;-89
2022/03/07 13:00:32;;;;;;;27.35;17.48;;;;;;;;;;6221428;23;20001;-89
2022/03/07 13:02:58;;;;;;;25.02;15.70;;;;;;;;;;6221457;23;20005;-89
2022/03/07 13:05:26;;;;;;;24.83;15.45;;;;;;;;;;6219879;23;20008;-88
2022/03/07 13:08:03;;;;;;;26.02;16.20;;;;;;;;;;6221046;23;20000;-89
2022/03/07 13:10:30;;;;;;;23.58;14.75;;;;;;;;;;6221261;23;20005;-88
2022/03/07 13:12:58;;;;;;;23.05;15.18;;;;;;;;;;6221446;23;20000;-88
2022/03/07 13:15:28;;;;;;;22.20;14.23;;;;;;;;;;6219539;23;20135;-89
2022/03/07 13:18:14;;;;;;;24.85;15.88;;;;;;;;;;6220027;23;20001;-89
2022/03/07 13:20:40;;;;;;;27.63;16.35;;;;;;;;;;6219973;23;20283;-88
2022/03/07 13:23:07;;;;;;;27.40;16.40;;;;;;;;;;6219993;23;20040;-88
2022/03/07 13:25:43;;;;;;;23.77;16.00;;;;;;;;;;6221229;23;20005;-89
2022/03/07 13:28:10;;;;;;;30.73;17.83;;;;;;;;;;6221296;23;20000;-89
2022/03/07 13:30:36;;;;;;;26.15;15.90;;;;;;;;;;6219918;23;20004;-89
2022/03/07 13:33:04;;;;;;;27.92;17.33;;;;;;;;;;6220641;23;20008;-90
2022/03/07 13:35:30;;;;;;;34.78;15.75;;;;;;;;;;6220653;23;20025;-88
2022/03/07 13:37:56;;;;;;;23.15;15.30;;;;;;;;;;6221259;23;20001;-89
2022/03/07 13:40:36;;;;;;;23.10;14.75;;;;;;;;;;6220892;23;20008;-89
2022/03/07 13:43:03;;;;;;;26.98;15.57;;;;;;;;;;6220863;23;20024;-88
2022/03/07 13:45:30;;;;;;;22.95;15.40;;;;;;;;;;6220809;23;20007;-88
2022/03/07 13:47:58;;;;;;;27.75;16.42;;;;;;;;;;6221226;23;20016;-88
2022/03/07 13:50:25;;;;;;;23.98;14.68;;;;;;;;;;6221307;23;20005;-89
2022/03/07 13:53:03;;;;;;;21.13;13.95;;;;;;;;;;6219542;23;20061;-89
2022/03/07 13:55:32;;;;;;;24.55;14.32;;;;;;;;;;6220833;23;20000;-87
2022/03/07 13:58:00;;;;;;;23.63;14.13;;;;;;;;;;6219058;23;20005;-86
2022/03/07 14:00:27;;;;;;;21.02;13.77;;;;;;;;;;6221187;23;20012;-86
2022/03/07 14:03:00;;;;;;;22.27;13.63;;;;;;;;;;6220552;23;20391;-85
2022/03/07 14:05:27;;;;;;;20.05;12.80;;;;;;;;;;6220709;23;20036;-86
2022/03/07 14:07:55;;;;;;;20.52;13.40;;;;;;;;;;6220628;23;20532;-89
2022/03/07 14:10:23;;;;;;;21.02;13.43;;;;;;;;;;6221166;23;20023;-87
2022/03/07 14:12:56;;;;;;;23.60;13.38;;;;;;;;;;6220686;23;20012;-87
2022/03/07 14:15:28;;;;;;;19.40;12.43;;;;;;;;;;6219285;23;20036;-87
2022/03/07 14:17:58;;;;;;;23.80;14.77;;;;;;;;;;6220598;23;20067;-86
2022/03/07 14:20:25;;;;;;;20.10;13.00;;;;;;;;;;6220975;23;20019;-88
2022/03/07 14:22:51;;;;;;;20.65;13.10;;;;;;;;;;6220628;23;20083;-86